sensor_id;sensor_type;location;lat;lon;timestamp;temperature;humidity
14604;DHT22;7388;51.078;13.740;2022-08-14T00:01:09;23.60;45.50
14604;DHT22;7388;51.078;13.740;2022-08-14T00:03:36;23.50;45.40
14604;DHT22;7388;51.078;13.740;2022-08-14T00:06:03;23.50;45.40
14604;DHT22;7388;51.078;13.740;2022-08-14T00:08:30;23.50;45.40
14604;DHT22;7388;51.078;13.740;2022-08-14T00:10:56;23.50;46.20
14604;DHT22;7388;51.078;13.740;2022-08-14T00:13:24;23.40;45.60
14604;DHT22;7388;51.078;13.740;2022-08-14T00:15:53;23.40;45.40
14604;DHT22;7388;51.078;13.740;2022-08-14T00:18:22;23.40;45.70
14604;DHT22;7388;51.078;13.740;2022-08-14T00:20:50;23.30;45.80
14604;DHT22;7388;51.078;13.740;2022-08-14T00:23:17;23.30;45.60
14604;DHT22;7388;51.078;13.740;2022-08-14T00:25:49;23.30;45.60
14604;DHT22;7388;51.078;13.740;2022-08-14T00:28:15;23.40;45.50
14604;DHT22;7388;51.078;13.740;2022-08-14T00:30:42;23.30;45.50
14604;DHT22;7388;51.078;13.740;2022-08-14T00:33:08;23.30;45.50
14604;DHT22;7388;51.078;13.740;2022-08-14T00:35:34;23.30;45.40
14604;DHT22;7388;51.078;13.740;2022-08-14T00:38:00;23.30;45.50
14604;DHT22;7388;51.078;13.740;2022-08-14T00:40:26;23.30;45.50
14604;DHT22;7388;51.078;13.740;2022-08-14T00:42:51;23.20;45.90
14604;DHT22;7388;51.078;13.740;2022-08-14T00:45:18;23.10;45.80
14604;DHT22;7388;51.078;13.740;2022-08-14T00:47:47;23.10;45.80
14604;DHT22;7388;51.078;13.740;2022-08-14T00:50:16;23.10;45.80
14604;DHT22;7388;51.078;13.740;2022-08-14T00:52:44;23.00;46.10
14604;DHT22;7388;51.078;13.740;2022-08-14T00:55:11;23.00;46.00
14604;DHT22;7388;51.078;13.740;2022-08-14T00:57:37;23.00;45.90
14604;DHT22;7388;51.078;13.740;2022-08-14T01:00:10;23.00;46.00
14604;DHT22;7388;51.078;13.740;2022-08-14T01:02:43;23.00;45.70
14604;DHT22;7388;51.078;13.740;2022-08-14T01:05:10;23.00;45.80
14604;DHT22;7388;51.078;13.740;2022-08-14T01:07:52;23.00;46.00
14604;DHT22;7388;51.078;13.740;2022-08-14T01:10:19;23.00;45.90
14604;DHT22;7388;51.078;13.740;2022-08-14T01:12:46;22.90;46.10
14604;DHT22;7388;51.078;13.740;2022-08-14T01:15:14;22.90;46.30
14604;DHT22;7388;51.078;13.740;2022-08-14T01:17:41;22.80;46.20
14604;DHT22;7388;51.078;13.740;2022-08-14T01:20:26;22.80;46.30
14604;DHT22;7388;51.078;13.740;2022-08-14T01:23:13;22.70;46.20
14604;DHT22;7388;51.078;13.740;2022-08-14T01:25:40;22.80;46.10
14604;DHT22;7388;51.078;13.740;2022-08-14T01:28:06;22.70;46.20
14604;DHT22;7388;51.078;13.740;2022-08-14T01:30:34;22.70;46.20
14604;DHT22;7388;51.078;13.740;2022-08-14T01:33:04;22.70;46.10
14604;DHT22;7388;51.078;13.740;2022-08-14T01:35:31;22.70;46.00
14604;DHT22;7388;51.078;13.740;2022-08-14T01:37:57;22.70;46.10
14604;DHT22;7388;51.078;13.740;2022-08-14T01:40:24;22.70;45.90
14604;DHT22;7388;51.078;13.740;2022-08-14T01:42:50;22.70;45.90
14604;DHT22;7388;51.078;13.740;2022-08-14T01:45:16;22.70;45.90
14604;DHT22;7388;51.078;13.740;2022-08-14T01:47:42;22.70;45.70
14604;DHT22;7388;51.078;13.740;2022-08-14T01:50:08;22.70;45.70
14604;DHT22;7388;51.078;13.740;2022-08-14T01:52:36;22.70;45.60
14604;DHT22;7388;51.078;13.740;2022-08-14T01:55:04;22.70;45.60
14604;DHT22;7388;51.078;13.740;2022-08-14T01:57:33;22.60;45.80
14604;DHT22;7388;51.078;13.740;2022-08-14T02:00:06;22.60;46.00
14604;DHT22;7388;51.078;13.740;2022-08-14T02:02:39;22.60;45.90
14604;DHT22;7388;51.078;13.740;2022-08-14T02:05:06;22.60;45.90
14604;DHT22;7388;51.078;13.740;2022-08-14T02:07:32;22.60;45.80
14604;DHT22;7388;51.078;13.740;2022-08-14T02:10:00;22.60;45.90
14604;DHT22;7388;51.078;13.740;2022-08-14T02:12:26;22.60;46.10
14604;DHT22;7388;51.078;13.740;2022-08-14T02:14:52;22.40;46.00
14604;DHT22;7388;51.078;13.740;2022-08-14T02:17:18;22.40;46.20
14604;DHT22;7388;51.078;13.740;2022-08-14T02:19:48;22.30;46.40
14604;DHT22;7388;51.078;13.740;2022-08-14T02:22:14;22.30;46.30
14604;DHT22;7388;51.078;13.740;2022-08-14T02:24:44;22.30;46.20
14604;DHT22;7388;51.078;13.740;2022-08-14T02:27:10;22.40;46.10
14604;DHT22;7388;51.078;13.740;2022-08-14T02:29:36;22.30;46.30
14604;DHT22;7388;51.078;13.740;2022-08-14T02:32:03;22.30;46.50
14604;DHT22;7388;51.078;13.740;2022-08-14T02:34:34;22.20;46.60
14604;DHT22;7388;51.078;13.740;2022-08-14T02:37:08;22.20;46.40
14604;DHT22;7388;51.078;13.740;2022-08-14T02:39:38;22.20;46.40
14604;DHT22;7388;51.078;13.740;2022-08-14T02:42:05;22.20;46.20
14604;DHT22;7388;51.078;13.740;2022-08-14T02:44:32;22.20;46.20
14604;DHT22;7388;51.078;13.740;2022-08-14T02:46:59;22.20;46.10
14604;DHT22;7388;51.078;13.740;2022-08-14T02:49:25;22.20;46.10
14604;DHT22;7388;51.078;13.740;2022-08-14T02:51:55;22.20;46.00
14604;DHT22;7388;51.078;13.740;2022-08-14T02:54:22;22.30;46.00
14604;DHT22;7388;51.078;13.740;2022-08-14T02:56:53;22.20;46.00
14604;DHT22;7388;51.078;13.740;2022-08-14T02:59:20;22.20;46.30
14604;DHT22;7388;51.078;13.740;2022-08-14T03:01:46;22.20;46.50
14604;DHT22;7388;51.078;13.740;2022-08-14T03:04:13;22.20;46.40
14604;DHT22;7388;51.078;13.740;2022-08-14T03:06:39;22.20;46.50
14604;DHT22;7388;51.078;13.740;2022-08-14T03:09:08;22.20;46.30
14604;DHT22;7388;51.078;13.740;2022-08-14T03:11:34;22.20;46.30
14604;DHT22;7388;51.078;13.740;2022-08-14T03:14:00;22.20;46.20
14604;DHT22;7388;51.078;13.740;2022-08-14T03:16:26;22.20;46.40
14604;DHT22;7388;51.078;13.740;2022-08-14T03:18:54;22.20;46.50
14604;DHT22;7388;51.078;13.740;2022-08-14T03:21:23;22.20;46.50
14604;DHT22;7388;51.078;13.740;2022-08-14T03:23:52;22.20;46.30
14604;DHT22;7388;51.078;13.740;2022-08-14T03:26:32;22.20;46.50
14604;DHT22;7388;51.078;13.740;2022-08-14T03:28:58;22.10;46.70
14604;DHT22;7388;51.078;13.740;2022-08-14T03:31:24;22.00;46.60
14604;DHT22;7388;51.078;13.740;2022-08-14T03:33:50;22.10;46.70
14604;DHT22;7388;51.078;13.740;2022-08-14T03:36:18;22.10;46.60
14604;DHT22;7388;51.078;13.740;2022-08-14T03:38:46;22.00;46.30
14604;DHT22;7388;51.078;13.740;2022-08-14T03:41:16;22.00;46.60
14604;DHT22;7388;51.078;13.740;2022-08-14T03:43:43;21.90;46.70
14604;DHT22;7388;51.078;13.740;2022-08-14T03:46:10;21.90;46.70
14604;DHT22;7388;51.078;13.740;2022-08-14T03:48:38;22.00;46.80
14604;DHT22;7388;51.078;13.740;2022-08-14T03:51:05;21.90;46.70
14604;DHT22;7388;51.078;13.740;2022-08-14T03:53:36;21.90;46.50
14604;DHT22;7388;51.078;13.740;2022-08-14T03:56:06;22.00;46.60
14604;DHT22;7388;51.078;13.740;2022-08-14T03:58:32;22.00;46.70
14604;DHT22;7388;51.078;13.740;2022-08-14T04:00:59;21.90;46.90
14604;DHT22;7388;51.078;13.740;2022-08-14T04:03:25;21.90;47.00
14604;DHT22;7388;51.078;13.740;2022-08-14T04:05:52;21.90;47.00
14604;DHT22;7388;51.078;13.740;2022-08-14T04:08:18;21.90;46.80
14604;DHT22;7388;51.078;13.740;2022-08-14T04:10:45;21.90;46.80
14604;DHT22;7388;51.078;13.740;2022-08-14T04:13:12;21.90;47.10
14604;DHT22;7388;51.078;13.740;2022-08-14T04:15:40;21.90;47.20
14604;DHT22;7388;51.078;13.740;2022-08-14T04:18:07;21.80;47.30
14604;DHT22;7388;51.078;13.740;2022-08-14T04:20:37;21.80;47.30
14604;DHT22;7388;51.078;13.740;2022-08-14T04:23:04;21.90;47.30
14604;DHT22;7388;51.078;13.740;2022-08-14T04:25:32;21.90;47.10
14604;DHT22;7388;51.078;13.740;2022-08-14T04:28:05;22.00;47.40
14604;DHT22;7388;51.078;13.740;2022-08-14T04:30:32;22.00;47.80
14604;DHT22;7388;51.078;13.740;2022-08-14T04:33:06;22.00;48.20
14604;DHT22;7388;51.078;13.740;2022-08-14T04:35:34;22.00;48.40
14604;DHT22;7388;51.078;13.740;2022-08-14T04:38:04;22.00;48.60
14604;DHT22;7388;51.078;13.740;2022-08-14T04:40:48;22.10;48.50
14604;DHT22;7388;51.078;13.740;2022-08-14T04:43:33;22.10;48.70
14604;DHT22;7388;51.078;13.740;2022-08-14T04:48:36;22.30;48.80
14604;DHT22;7388;51.078;13.740;2022-08-14T04:51:07;22.40;48.60
14604;DHT22;7388;51.078;13.740;2022-08-14T04:53:35;22.50;48.40
14604;DHT22;7388;51.078;13.740;2022-08-14T04:56:03;22.50;48.40
14604;DHT22;7388;51.078;13.740;2022-08-14T04:58:31;22.60;48.40
14604;DHT22;7388;51.078;13.740;2022-08-14T05:00:58;22.70;48.50
14604;DHT22;7388;51.078;13.740;2022-08-14T05:03:26;22.80;48.40
14604;DHT22;7388;51.078;13.740;2022-08-14T05:05:55;22.90;48.20
14604;DHT22;7388;51.078;13.740;2022-08-14T05:08:21;22.90;48.10
14604;DHT22;7388;51.078;13.740;2022-08-14T05:10:52;23.00;48.00
14604;DHT22;7388;51.078;13.740;2022-08-14T05:13:20;23.10;48.00
14604;DHT22;7388;51.078;13.740;2022-08-14T05:15:48;23.20;47.80
14604;DHT22;7388;51.078;13.740;2022-08-14T05:18:25;23.30;47.70
14604;DHT22;7388;51.078;13.740;2022-08-14T05:20:54;23.40;47.70
14604;DHT22;7388;51.078;13.740;2022-08-14T05:23:22;23.40;47.50
14604;DHT22;7388;51.078;13.740;2022-08-14T05:25:50;23.50;47.70
14604;DHT22;7388;51.078;13.740;2022-08-14T05:28:24;23.60;47.40
14604;DHT22;7388;51.078;13.740;2022-08-14T05:30:57;23.70;47.30
14604;DHT22;7388;51.078;13.740;2022-08-14T05:33:25;23.80;47.30
14604;DHT22;7388;51.078;13.740;2022-08-14T05:35:53;23.80;47.10
14604;DHT22;7388;51.078;13.740;2022-08-14T05:38:27;23.90;47.30
14604;DHT22;7388;51.078;13.740;2022-08-14T05:40:55;23.90;47.10
14604;DHT22;7388;51.078;13.740;2022-08-14T05:43:24;24.00;47.00
14604;DHT22;7388;51.078;13.740;2022-08-14T05:45:49;24.10;47.00
14604;DHT22;7388;51.078;13.740;2022-08-14T05:48:15;24.20;46.90
14604;DHT22;7388;51.078;13.740;2022-08-14T05:50:41;24.30;46.80
14604;DHT22;7388;51.078;13.740;2022-08-14T05:53:07;24.30;46.80
14604;DHT22;7388;51.078;13.740;2022-08-14T05:55:33;24.40;46.90
14604;DHT22;7388;51.078;13.740;2022-08-14T05:58:05;24.40;46.70
14604;DHT22;7388;51.078;13.740;2022-08-14T06:00:36;24.40;47.10
14604;DHT22;7388;51.078;13.740;2022-08-14T06:03:04;24.50;47.10
14604;DHT22;7388;51.078;13.740;2022-08-14T06:05:31;24.60;46.70
14604;DHT22;7388;51.078;13.740;2022-08-14T06:07:58;24.70;46.90
14604;DHT22;7388;51.078;13.740;2022-08-14T06:10:25;24.80;46.90
14604;DHT22;7388;51.078;13.740;2022-08-14T06:12:51;24.80;46.50
14604;DHT22;7388;51.078;13.740;2022-08-14T06:15:17;24.90;46.60
14604;DHT22;7388;51.078;13.740;2022-08-14T06:17:47;24.90;46.50
14604;DHT22;7388;51.078;13.740;2022-08-14T06:20:13;24.90;46.40
14604;DHT22;7388;51.078;13.740;2022-08-14T06:22:40;25.00;46.60
14604;DHT22;7388;51.078;13.740;2022-08-14T06:25:07;24.90;46.50
14604;DHT22;7388;51.078;13.740;2022-08-14T06:27:41;24.90;46.60
14604;DHT22;7388;51.078;13.740;2022-08-14T06:30:10;25.30;46.50
14604;DHT22;7388;51.078;13.740;2022-08-14T06:32:36;24.90;46.50
14604;DHT22;7388;51.078;13.740;2022-08-14T06:35:04;24.90;46.60
14604;DHT22;7388;51.078;13.740;2022-08-14T06:37:44;25.00;46.80
14604;DHT22;7388;51.078;13.740;2022-08-14T06:40:11;25.20;46.90
14604;DHT22;7388;51.078;13.740;2022-08-14T06:42:38;25.30;46.50
14604;DHT22;7388;51.078;13.740;2022-08-14T06:45:04;25.40;46.00
14604;DHT22;7388;51.078;13.740;2022-08-14T06:47:36;25.40;45.80
14604;DHT22;7388;51.078;13.740;2022-08-14T06:50:07;25.50;45.90
14604;DHT22;7388;51.078;13.740;2022-08-14T06:52:33;25.50;46.00
14604;DHT22;7388;51.078;13.740;2022-08-14T06:54:59;25.60;46.00
14604;DHT22;7388;51.078;13.740;2022-08-14T06:57:34;25.80;46.10
14604;DHT22;7388;51.078;13.740;2022-08-14T07:00:04;25.90;46.00
14604;DHT22;7388;51.078;13.740;2022-08-14T07:02:30;25.90;45.50
14604;DHT22;7388;51.078;13.740;2022-08-14T07:05:15;25.90;45.40
14604;DHT22;7388;51.078;13.740;2022-08-14T07:07:59;25.80;45.50
14604;DHT22;7388;51.078;13.740;2022-08-14T07:10:25;25.90;45.60
14604;DHT22;7388;51.078;13.740;2022-08-14T07:12:50;25.90;45.90
14604;DHT22;7388;51.078;13.740;2022-08-14T07:15:16;26.10;46.60
14604;DHT22;7388;51.078;13.740;2022-08-14T07:17:51;26.20;46.50
14604;DHT22;7388;51.078;13.740;2022-08-14T07:20:17;26.30;46.10
14604;DHT22;7388;51.078;13.740;2022-08-14T07:22:46;26.40;45.80
14604;DHT22;7388;51.078;13.740;2022-08-14T07:25:13;26.40;45.50
14604;DHT22;7388;51.078;13.740;2022-08-14T07:27:39;26.50;45.40
14604;DHT22;7388;51.078;13.740;2022-08-14T07:30:06;26.40;45.20
14604;DHT22;7388;51.078;13.740;2022-08-14T07:32:32;26.50;45.10
14604;DHT22;7388;51.078;13.740;2022-08-14T07:34:58;26.50;45.40
14604;DHT22;7388;51.078;13.740;2022-08-14T07:37:24;26.60;45.60
14604;DHT22;7388;51.078;13.740;2022-08-14T07:39:50;26.60;45.70
14604;DHT22;7388;51.078;13.740;2022-08-14T07:42:16;26.80;45.90
14604;DHT22;7388;51.078;13.740;2022-08-14T07:44:42;26.90;45.60
14604;DHT22;7388;51.078;13.740;2022-08-14T07:47:08;26.90;45.20
14604;DHT22;7388;51.078;13.740;2022-08-14T07:49:35;26.90;44.90
14604;DHT22;7388;51.078;13.740;2022-08-14T07:52:01;26.90;44.70
14604;DHT22;7388;51.078;13.740;2022-08-14T07:54:27;26.90;44.50
14604;DHT22;7388;51.078;13.740;2022-08-14T07:56:53;26.90;44.50
14604;DHT22;7388;51.078;13.740;2022-08-14T07:59:19;26.90;44.40
14604;DHT22;7388;51.078;13.740;2022-08-14T08:01:46;26.80;44.40
14604;DHT22;7388;51.078;13.740;2022-08-14T08:04:13;26.80;44.50
14604;DHT22;7388;51.078;13.740;2022-08-14T08:06:40;26.90;44.60
14604;DHT22;7388;51.078;13.740;2022-08-14T08:09:08;26.90;44.40
14604;DHT22;7388;51.078;13.740;2022-08-14T08:11:35;27.00;45.00
14604;DHT22;7388;51.078;13.740;2022-08-14T08:14:05;27.10;45.00
14604;DHT22;7388;51.078;13.740;2022-08-14T08:16:33;27.30;45.10
14604;DHT22;7388;51.078;13.740;2022-08-14T08:18:59;27.30;44.50
14604;DHT22;7388;51.078;13.740;2022-08-14T08:21:24;27.50;44.30
14604;DHT22;7388;51.078;13.740;2022-08-14T08:23:51;27.50;44.30
14604;DHT22;7388;51.078;13.740;2022-08-14T08:26:19;27.60;43.90
14604;DHT22;7388;51.078;13.740;2022-08-14T08:28:55;27.70;44.20
14604;DHT22;7388;51.078;13.740;2022-08-14T08:31:22;27.80;43.70
14604;DHT22;7388;51.078;13.740;2022-08-14T08:33:51;27.80;43.70
14604;DHT22;7388;51.078;13.740;2022-08-14T08:36:18;28.00;44.20
14604;DHT22;7388;51.078;13.740;2022-08-14T08:38:47;28.00;43.80
14604;DHT22;7388;51.078;13.740;2022-08-14T08:41:13;28.10;43.50
14604;DHT22;7388;51.078;13.740;2022-08-14T08:43:40;28.10;43.30
14604;DHT22;7388;51.078;13.740;2022-08-14T08:46:08;28.10;43.30
14604;DHT22;7388;51.078;13.740;2022-08-14T08:54:00;28.50;43.30
14604;DHT22;7388;51.078;13.740;2022-08-14T08:56:40;28.60;43.00
14604;DHT22;7388;51.078;13.740;2022-08-14T08:59:23;28.70;42.30
14604;DHT22;7388;51.078;13.740;2022-08-14T09:01:52;28.80;43.10
14604;DHT22;7388;51.078;13.740;2022-08-14T09:04:19;28.90;42.30
14604;DHT22;7388;51.078;13.740;2022-08-14T09:06:46;29.10;43.00
14604;DHT22;7388;51.078;13.740;2022-08-14T09:09:30;29.20;42.90
14604;DHT22;7388;51.078;13.740;2022-08-14T09:11:58;29.30;42.10
14604;DHT22;7388;51.078;13.740;2022-08-14T09:14:29;29.40;42.80
14604;DHT22;7388;51.078;13.740;2022-08-14T09:16:58;29.40;41.50
14604;DHT22;7388;51.078;13.740;2022-08-14T09:19:27;29.40;41.60
14604;DHT22;7388;51.078;13.740;2022-08-14T09:21:53;29.50;40.50
14604;DHT22;7388;51.078;13.740;2022-08-14T09:24:20;29.50;40.70
14604;DHT22;7388;51.078;13.740;2022-08-14T09:26:46;29.60;41.20
14604;DHT22;7388;51.078;13.740;2022-08-14T09:29:12;29.70;41.40
14604;DHT22;7388;51.078;13.740;2022-08-14T09:31:42;29.90;40.80
14604;DHT22;7388;51.078;13.740;2022-08-14T09:34:26;29.90;40.20
14604;DHT22;7388;51.078;13.740;2022-08-14T09:45:23;30.60;39.80
14604;DHT22;7388;51.078;13.740;2022-08-14T09:47:55;30.60;39.60
14604;DHT22;7388;51.078;13.740;2022-08-14T09:52:55;30.80;39.10
14604;DHT22;7388;51.078;13.740;2022-08-14T09:55:24;30.90;39.00
14604;DHT22;7388;51.078;13.740;2022-08-14T09:57:51;31.10;36.50
14604;DHT22;7388;51.078;13.740;2022-08-14T10:00:18;31.20;38.50
14604;DHT22;7388;51.078;13.740;2022-08-14T10:02:54;31.40;37.70
14604;DHT22;7388;51.078;13.740;2022-08-14T10:05:36;31.50;35.60
14604;DHT22;7388;51.078;13.740;2022-08-14T10:08:03;31.60;34.40
14604;DHT22;7388;51.078;13.740;2022-08-14T10:10:39;31.70;34.10
14604;DHT22;7388;51.078;13.740;2022-08-14T10:13:19;31.70;34.60
14604;DHT22;7388;51.078;13.740;2022-08-14T10:15:46;31.70;33.70
14604;DHT22;7388;51.078;13.740;2022-08-14T10:18:15;31.70;34.30
14604;DHT22;7388;51.078;13.740;2022-08-14T10:20:58;31.70;34.90
14604;DHT22;7388;51.078;13.740;2022-08-14T10:23:28;31.70;34.80
14604;DHT22;7388;51.078;13.740;2022-08-14T10:26:05;31.70;35.30
14604;DHT22;7388;51.078;13.740;2022-08-14T10:28:40;31.70;34.20
14604;DHT22;7388;51.078;13.740;2022-08-14T10:31:22;31.70;33.40
14604;DHT22;7388;51.078;13.740;2022-08-14T10:34:08;31.70;33.50
14604;DHT22;7388;51.078;13.740;2022-08-14T10:36:40;31.80;33.20
14604;DHT22;7388;51.078;13.740;2022-08-14T10:39:19;31.90;33.20
14604;DHT22;7388;51.078;13.740;2022-08-14T10:41:46;32.00;33.20
14604;DHT22;7388;51.078;13.740;2022-08-14T10:44:14;32.10;33.50
14604;DHT22;7388;51.078;13.740;2022-08-14T10:46:46;32.20;33.40
14604;DHT22;7388;51.078;13.740;2022-08-14T10:49:21;32.40;33.60
14604;DHT22;7388;51.078;13.740;2022-08-14T10:52:24;32.50;33.50
14604;DHT22;7388;51.078;13.740;2022-08-14T10:54:51;32.70;32.50
14604;DHT22;7388;51.078;13.740;2022-08-14T10:57:25;32.80;32.10
14604;DHT22;7388;51.078;13.740;2022-08-14T11:00:00;32.90;32.20
14604;DHT22;7388;51.078;13.740;2022-08-14T11:02:30;32.90;32.50
14604;DHT22;7388;51.078;13.740;2022-08-14T11:07:34;33.00;33.10
14604;DHT22;7388;51.078;13.740;2022-08-14T11:10:11;33.00;31.80
14604;DHT22;7388;51.078;13.740;2022-08-14T11:12:51;33.10;31.60
14604;DHT22;7388;51.078;13.740;2022-08-14T11:15:24;33.10;30.90
14604;DHT22;7388;51.078;13.740;2022-08-14T11:17:51;33.20;31.60
14604;DHT22;7388;51.078;13.740;2022-08-14T11:20:23;33.20;30.90
14604;DHT22;7388;51.078;13.740;2022-08-14T11:22:54;33.30;30.70
14604;DHT22;7388;51.078;13.740;2022-08-14T11:25:23;33.40;30.70
14604;DHT22;7388;51.078;13.740;2022-08-14T11:27:52;33.40;30.60
14604;DHT22;7388;51.078;13.740;2022-08-14T11:30:20;33.40;30.70
14604;DHT22;7388;51.078;13.740;2022-08-14T11:32:48;33.50;29.10
14604;DHT22;7388;51.078;13.740;2022-08-14T11:35:19;33.50;29.90
14604;DHT22;7388;51.078;13.740;2022-08-14T11:38:05;33.60;29.00
14604;DHT22;7388;51.078;13.740;2022-08-14T11:40:34;33.50;28.60
14604;DHT22;7388;51.078;13.740;2022-08-14T11:43:02;33.50;28.20
14604;DHT22;7388;51.078;13.740;2022-08-14T11:45:29;33.30;28.20
14604;DHT22;7388;51.078;13.740;2022-08-14T11:50:39;32.90;28.40
14604;DHT22;7388;51.078;13.740;2022-08-14T11:53:06;32.80;29.10
14604;DHT22;7388;51.078;13.740;2022-08-14T11:55:36;32.70;29.70
14604;DHT22;7388;51.078;13.740;2022-08-14T11:58:08;32.60;30.00
14604;DHT22;7388;51.078;13.740;2022-08-14T12:00:49;32.50;29.50
14604;DHT22;7388;51.078;13.740;2022-08-14T12:03:15;32.40;28.70
14604;DHT22;7388;51.078;13.740;2022-08-14T12:05:41;32.30;29.60
14604;DHT22;7388;51.078;13.740;2022-08-14T12:08:09;32.20;30.20
14604;DHT22;7388;51.078;13.740;2022-08-14T12:10:40;32.20;30.40
14604;DHT22;7388;51.078;13.740;2022-08-14T12:13:28;32.10;31.00
14604;DHT22;7388;51.078;13.740;2022-08-14T12:16:17;32.10;31.30
14604;DHT22;7388;51.078;13.740;2022-08-14T12:18:47;32.00;31.20
14604;DHT22;7388;51.078;13.740;2022-08-14T12:21:17;31.90;31.10
14604;DHT22;7388;51.078;13.740;2022-08-14T12:23:46;31.80;31.20
14604;DHT22;7388;51.078;13.740;2022-08-14T12:26:17;31.80;30.90
14604;DHT22;7388;51.078;13.740;2022-08-14T12:28:49;31.70;30.70
14604;DHT22;7388;51.078;13.740;2022-08-14T12:31:19;31.70;30.80
14604;DHT22;7388;51.078;13.740;2022-08-14T12:34:00;31.70;30.80
14604;DHT22;7388;51.078;13.740;2022-08-14T12:36:27;31.70;30.30
14604;DHT22;7388;51.078;13.740;2022-08-14T12:38:59;31.80;30.60
14604;DHT22;7388;51.078;13.740;2022-08-14T12:41:30;31.80;30.20
14604;DHT22;7388;51.078;13.740;2022-08-14T12:44:01;31.90;30.50
14604;DHT22;7388;51.078;13.740;2022-08-14T12:46:32;31.90;30.70
14604;DHT22;7388;51.078;13.740;2022-08-14T12:49:17;31.90;31.00
14604;DHT22;7388;51.078;13.740;2022-08-14T12:52:00;31.90;30.80
14604;DHT22;7388;51.078;13.740;2022-08-14T12:54:28;31.90;31.20
14604;DHT22;7388;51.078;13.740;2022-08-14T12:57:10;32.00;31.10
14604;DHT22;7388;51.078;13.740;2022-08-14T12:59:38;32.00;31.60
14604;DHT22;7388;51.078;13.740;2022-08-14T13:02:06;32.00;31.70
14604;DHT22;7388;51.078;13.740;2022-08-14T13:04:33;32.10;31.80
14604;DHT22;7388;51.078;13.740;2022-08-14T13:07:03;32.20;32.20
14604;DHT22;7388;51.078;13.740;2022-08-14T13:09:34;32.20;31.40
14604;DHT22;7388;51.078;13.740;2022-08-14T13:12:05;32.20;31.70
14604;DHT22;7388;51.078;13.740;2022-08-14T13:14:32;32.30;32.00
14604;DHT22;7388;51.078;13.740;2022-08-14T13:17:03;32.30;32.00
14604;DHT22;7388;51.078;13.740;2022-08-14T13:19:29;32.40;31.90
14604;DHT22;7388;51.078;13.740;2022-08-14T13:21:55;32.40;32.20
14604;DHT22;7388;51.078;13.740;2022-08-14T13:24:22;32.50;32.30
14604;DHT22;7388;51.078;13.740;2022-08-14T13:26:54;32.50;32.00
14604;DHT22;7388;51.078;13.740;2022-08-14T13:29:23;32.60;31.80
14604;DHT22;7388;51.078;13.740;2022-08-14T13:31:54;32.70;31.60
14604;DHT22;7388;51.078;13.740;2022-08-14T13:34:23;32.70;31.70
14604;DHT22;7388;51.078;13.740;2022-08-14T13:36:49;32.80;31.30
14604;DHT22;7388;51.078;13.740;2022-08-14T13:39:17;32.90;31.40
14604;DHT22;7388;51.078;13.740;2022-08-14T13:41:44;33.10;31.50
14604;DHT22;7388;51.078;13.740;2022-08-14T13:44:13;33.30;31.10
14604;DHT22;7388;51.078;13.740;2022-08-14T13:46:40;33.40;30.90
14604;DHT22;7388;51.078;13.740;2022-08-14T13:49:08;33.60;30.70
14604;DHT22;7388;51.078;13.740;2022-08-14T13:51:38;33.70;30.20
14604;DHT22;7388;51.078;13.740;2022-08-14T13:54:05;33.70;30.00
14604;DHT22;7388;51.078;13.740;2022-08-14T13:56:36;33.70;29.90
14604;DHT22;7388;51.078;13.740;2022-08-14T13:59:02;33.70;30.50
14604;DHT22;7388;51.078;13.740;2022-08-14T14:01:28;33.80;30.50
14604;DHT22;7388;51.078;13.740;2022-08-14T14:03:56;33.90;30.30
14604;DHT22;7388;51.078;13.740;2022-08-14T14:06:25;34.00;30.10
14604;DHT22;7388;51.078;13.740;2022-08-14T14:08:56;34.00;30.00
14604;DHT22;7388;51.078;13.740;2022-08-14T14:11:22;34.10;29.80
14604;DHT22;7388;51.078;13.740;2022-08-14T14:13:54;34.00;29.30
14604;DHT22;7388;51.078;13.740;2022-08-14T14:16:21;34.00;29.70
14604;DHT22;7388;51.078;13.740;2022-08-14T14:18:52;34.00;29.60
14604;DHT22;7388;51.078;13.740;2022-08-14T14:21:26;33.90;29.60
14604;DHT22;7388;51.078;13.740;2022-08-14T14:23:53;33.90;29.70
14604;DHT22;7388;51.078;13.740;2022-08-14T14:26:20;33.90;28.40
14604;DHT22;7388;51.078;13.740;2022-08-14T14:28:51;33.90;29.00
14604;DHT22;7388;51.078;13.740;2022-08-14T14:31:24;34.00;28.30
14604;DHT22;7388;51.078;13.740;2022-08-14T14:33:52;33.90;27.70
14604;DHT22;7388;51.078;13.740;2022-08-14T14:36:25;33.90;27.20
14604;DHT22;7388;51.078;13.740;2022-08-14T14:38:57;33.70;28.10
14604;DHT22;7388;51.078;13.740;2022-08-14T14:41:25;33.70;28.30
14604;DHT22;7388;51.078;13.740;2022-08-14T14:43:52;33.50;28.70
14604;DHT22;7388;51.078;13.740;2022-08-14T14:46:20;33.50;28.80
14604;DHT22;7388;51.078;13.740;2022-08-14T14:48:46;33.40;29.00
14604;DHT22;7388;51.078;13.740;2022-08-14T14:51:13;33.40;28.40
14604;DHT22;7388;51.078;13.740;2022-08-14T14:53:40;33.30;28.80
14604;DHT22;7388;51.078;13.740;2022-08-14T14:56:07;33.20;28.50
14604;DHT22;7388;51.078;13.740;2022-08-14T14:58:36;33.20;29.10
14604;DHT22;7388;51.078;13.740;2022-08-14T15:01:04;33.20;29.30
14604;DHT22;7388;51.078;13.740;2022-08-14T15:03:33;33.20;29.30
14604;DHT22;7388;51.078;13.740;2022-08-14T15:05:59;33.20;29.20
14604;DHT22;7388;51.078;13.740;2022-08-14T15:08:25;33.10;29.10
14604;DHT22;7388;51.078;13.740;2022-08-14T15:10:50;33.10;29.20
14604;DHT22;7388;51.078;13.740;2022-08-14T15:13:18;33.00;28.60
14604;DHT22;7388;51.078;13.740;2022-08-14T15:15:44;33.00;28.90
14604;DHT22;7388;51.078;13.740;2022-08-14T15:18:10;32.90;28.80
14604;DHT22;7388;51.078;13.740;2022-08-14T15:20:36;32.80;29.10
14604;DHT22;7388;51.078;13.740;2022-08-14T15:23:02;32.80;28.30
14604;DHT22;7388;51.078;13.740;2022-08-14T15:25:28;32.70;28.50
14604;DHT22;7388;51.078;13.740;2022-08-14T15:27:57;32.70;28.60
14604;DHT22;7388;51.078;13.740;2022-08-14T15:30:23;32.70;29.00
14604;DHT22;7388;51.078;13.740;2022-08-14T15:32:49;32.80;29.00
14604;DHT22;7388;51.078;13.740;2022-08-14T15:35:15;32.80;29.10
14604;DHT22;7388;51.078;13.740;2022-08-14T15:37:40;32.80;29.20
14604;DHT22;7388;51.078;13.740;2022-08-14T15:40:07;32.80;29.30
14604;DHT22;7388;51.078;13.740;2022-08-14T15:42:36;32.70;29.50
14604;DHT22;7388;51.078;13.740;2022-08-14T15:45:04;32.70;29.70
14604;DHT22;7388;51.078;13.740;2022-08-14T15:47:34;32.70;29.50
14604;DHT22;7388;51.078;13.740;2022-08-14T15:50:04;32.70;29.50
14604;DHT22;7388;51.078;13.740;2022-08-14T15:52:34;32.70;29.60
14604;DHT22;7388;51.078;13.740;2022-08-14T15:55:06;32.60;29.90
14604;DHT22;7388;51.078;13.740;2022-08-14T15:57:33;32.60;29.80
14604;DHT22;7388;51.078;13.740;2022-08-14T15:59:59;32.60;29.60
14604;DHT22;7388;51.078;13.740;2022-08-14T16:02:43;32.50;29.70
14604;DHT22;7388;51.078;13.740;2022-08-14T16:05:09;32.40;29.60
14604;DHT22;7388;51.078;13.740;2022-08-14T16:07:35;32.40;29.90